Time;durP1;ratioP1;P1;durP2;ratioP2;P2;SDS_P1;SDS_P2;PMS_P1;PMS_P2;Temp;Humidity;BMP_temperature;BMP_pressure;BME280_temperature;BME280_humidity;BME280_pressure;Samples;Min_cycle;Max_cycle;Signal;HPM_P1;HPM_P2
2021/01/13 00:01:42;;;;;;;7.70;5.73;;;2.80;99.90;;;;;;5073272;28;20208;-58
2021/01/13 00:04:09;;;;;;;8.30;5.93;;;2.70;99.90;;;;;;5064117;28;20181;-59
2021/01/13 00:06:35;;;;;;;9.73;6.95;;;3.00;99.90;;;;;;5055012;28;20463;-59
2021/01/13 00:09:00;;;;;;;9.82;6.15;;;3.10;99.90;;;;;;5053943;28;20236;-58
2021/01/13 00:11:27;;;;;;;8.60;6.33;;;2.90;99.90;;;;;;5062969;28;20193;-58
2021/01/13 00:13:53;;;;;;;10.15;6.60;;;2.50;99.90;;;;;;5060743;28;20234;-60
2021/01/13 00:16:18;;;;;;;7.50;6.10;;;2.90;99.90;;;;;;5065340;28;20271;-59
2021/01/13 00:18:44;;;;;;;7.70;6.40;;;2.80;99.90;;;;;;5057989;28;20503;-58
2021/01/13 00:21:16;;;;;;;5.77;5.17;;;2.80;99.90;;;;;;5056597;28;20236;-59
2021/01/13 00:23:46;;;;;;;8.63;5.95;;;2.90;99.90;;;;;;5063242;28;20189;-59
2021/01/13 00:26:22;;;;;;;9.57;6.38;;;2.90;99.90;;;;;;5065713;28;20173;-58
2021/01/13 00:28:51;;;;;;;7.07;5.85;;;3.20;99.90;;;;;;5066810;28;20205;-59
2021/01/13 00:31:18;;;;;;;6.70;5.75;;;3.00;99.90;;;;;;5059654;28;20196;-59
2021/01/13 00:33:47;;;;;;;8.98;6.38;;;3.00;99.90;;;;;;5065567;28;20268;-60
2021/01/13 00:36:31;;;;;;;7.65;6.57;;;3.10;99.90;;;;;;5064297;28;20207;-59
2021/01/13 00:38:57;;;;;;;8.20;6.47;;;3.30;99.90;;;;;;5054667;28;20656;-59
2021/01/13 00:41:23;;;;;;;9.70;6.40;;;3.40;99.90;;;;;;5064054;28;20406;-59
2021/01/13 00:43:53;;;;;;;7.70;5.30;;;3.00;99.90;;;;;;5064179;28;20229;-59
2021/01/13 00:46:19;;;;;;;9.02;6.47;;;3.10;99.90;;;;;;5059857;28;20467;-58
2021/01/13 00:48:45;;;;;;;8.57;6.75;;;3.10;99.90;;;;;;5063327;28;20745;-59
2021/01/13 00:51:11;;;;;;;7.23;6.07;;;3.20;99.90;;;;;;5059070;28;20280;-59
2021/01/13 00:53:40;;;;;;;7.13;6.40;;;3.20;99.90;;;;;;5072263;28;20463;-59
2021/01/13 00:56:06;;;;;;;8.52;6.25;;;3.30;99.90;;;;;;5067013;28;20185;-59
2021/01/13 00:58:32;;;;;;;9.90;5.70;;;3.20;99.90;;;;;;5070351;28;20586;-58
2021/01/13 01:00:58;;;;;;;7.93;6.30;;;3.20;99.90;;;;;;5061201;28;21069;-59
2021/01/13 01:03:24;;;;;;;7.18;5.68;;;3.50;99.90;;;;;;5070103;28;20189;-59
2021/01/13 01:05:50;;;;;;;8.30;5.90;;;3.30;99.90;;;;;;5068992;28;20188;-60
2021/01/13 01:08:17;;;;;;;7.50;5.30;;;3.30;99.90;;;;;;5070091;28;20284;-59
2021/01/13 01:10:44;;;;;;;7.28;5.75;;;3.40;99.90;;;;;;5056459;28;20227;-59
2021/01/13 01:13:10;;;;;;;6.53;5.82;;;3.40;99.90;;;;;;5070278;28;20651;-59
2021/01/13 01:15:35;;;;;;;8.33;6.00;;;3.60;99.90;;;;;;5064998;28;20192;-59
2021/01/13 01:18:02;;;;;;;10.33;5.90;;;3.50;99.90;;;;;;5063201;28;20254;-59
2021/01/13 01:20:28;;;;;;;7.60;5.95;;;3.60;99.90;;;;;;5064747;28;20189;-59
2021/01/13 01:22:54;;;;;;;6.67;4.97;;;3.60;99.90;;;;;;5064197;28;20234;-57
2021/01/13 01:25:21;;;;;;;8.43;5.90;;;3.50;99.90;;;;;;5052986;28;20489;-59
2021/01/13 01:27:58;;;;;;;10.48;6.20;;;3.40;99.90;;;;;;5063907;28;20177;-59
2021/01/13 01:30:26;;;;;;;6.93;5.53;;;3.50;99.90;;;;;;5057422;28;20185;-59
2021/01/13 01:32:52;;;;;;;6.82;5.60;;;3.60;99.90;;;;;;5069858;28;20188;-59
2021/01/13 01:35:17;;;;;;;7.85;5.75;;;3.20;99.90;;;;;;5061327;28;20820;-59
2021/01/13 01:37:44;;;;;;;6.90;5.47;;;3.60;99.90;;;;;;5063947;28;20189;-60
2021/01/13 01:40:16;;;;;;;6.25;5.60;;;3.60;99.90;;;;;;5050060;28;20436;-59
2021/01/13 01:42:53;;;;;;;6.05;5.10;;;3.60;99.90;;;;;;5064543;28;20211;-59
2021/01/13 01:45:23;;;;;;;7.15;5.10;;;3.70;99.90;;;;;;5062441;28;20177;-58
2021/01/13 01:47:58;;;;;;;6.15;4.88;;;3.40;99.90;;;;;;5057219;28;20662;-58
2021/01/13 01:50:27;;;;;;;11.88;5.80;;;3.50;99.90;;;;;;5069671;28;20654;-58
2021/01/13 01:53:01;;;;;;;6.18;4.90;;;3.60;99.90;;;;;;5062505;28;20224;-59
2021/01/13 01:55:32;;;;;;;5.35;4.85;;;3.40;99.90;;;;;;5064339;28;20213;-59
2021/01/13 01:58:02;;;;;;;8.18;5.85;;;3.60;99.90;;;;;;5069219;28;20216;-60
2021/01/13 02:00:32;;;;;;;5.97;5.03;;;3.30;99.90;;;;;;5063121;28;20182;-59
2021/01/13 02:03:12;;;;;;;6.95;5.03;;;3.50;99.90;;;;;;5060395;28;20244;-60
2021/01/13 02:05:39;;;;;;;7.30;5.57;;;3.50;99.90;;;;;;5067468;28;20177;-59
2021/01/13 02:08:05;;;;;;;5.85;4.80;;;3.70;99.90;;;;;;5063393;28;21037;-60
2021/01/13 02:10:30;;;;;;;7.33;4.50;;;3.60;99.90;;;;;;5067301;28;20189;-60
2021/01/13 02:13:07;;;;;;;6.80;5.37;;;3.60;99.90;;;;;;5061674;28;20277;-60
2021/01/13 02:15:33;;;;;;;5.72;4.70;;;3.90;99.90;;;;;;5066702;28;20189;-59
2021/01/13 02:18:03;;;;;;;5.40;4.25;;;3.90;99.90;;;;;;5065520;28;20244;-57
2021/01/13 02:20:31;;;;;;;5.40;4.55;;;3.60;99.90;;;;;;5063703;28;20196;-59
2021/01/13 02:23:06;;;;;;;4.18;3.65;;;3.60;99.90;;;;;;5063632;28;20587;-59
2021/01/13 02:25:53;;;;;;;4.95;3.88;;;3.80;99.90;;;;;;5052242;28;20247;-59
2021/01/13 02:28:22;;;;;;;5.55;4.53;;;3.90;99.90;;;;;;5065605;28;20262;-60
2021/01/13 02:31:04;;;;;;;4.90;4.38;;;4.10;99.90;;;;;;5074907;28;20198;-60
2021/01/13 02:33:42;;;;;;;6.95;4.45;;;3.90;99.90;;;;;;5052663;28;20177;-59
2021/01/13 02:36:19;;;;;;;5.80;3.72;;;3.60;99.90;;;;;;5063589;28;20185;-59
2021/01/13 02:38:50;;;;;;;6.25;3.53;;;3.70;99.90;;;;;;5052516;28;20212;-60
2021/01/13 02:41:18;;;;;;;5.20;3.88;;;3.70;99.90;;;;;;5065806;28;20211;-59
2021/01/13 02:43:58;;;;;;;4.68;3.55;;;3.90;99.90;;;;;;5062768;28;20824;-59
2021/01/13 02:46:55;;;;;;;4.10;3.70;;;3.80;99.90;;;;;;5066091;28;20238;-59
2021/01/13 02:49:26;;;;;;;7.10;4.00;;;3.60;99.90;;;;;;5060673;28;20235;-60
2021/01/13 02:52:20;;;;;;;5.03;3.67;;;3.60;99.90;;;;;;5058693;28;20189;-59
2021/01/13 02:54:55;;;;;;;6.20;3.72;;;3.50;99.90;;;;;;5057929;28;20677;-59
2021/01/13 02:57:28;;;;;;;4.13;3.72;;;3.50;99.90;;;;;;5064054;28;20197;-58
2021/01/13 02:59:58;;;;;;;4.47;4.07;;;3.60;99.90;;;;;;5068016;28;20235;-57
2021/01/13 03:02:48;;;;;;;5.25;4.13;;;3.80;99.90;;;;;;5080968;28;20210;-59
2021/01/13 03:05:14;;;;;;;4.22;3.72;;;3.70;99.90;;;;;;5059734;28;20185;-59
2021/01/13 03:07:42;;;;;;;5.47;3.70;;;3.80;99.90;;;;;;5059345;28;20195;-59
2021/01/13 03:10:11;;;;;;;5.63;4.28;;;3.90;99.90;;;;;;5058709;28;20435;-60
2021/01/13 03:12:40;;;;;;;5.50;4.22;;;3.70;99.90;;;;;;5066826;28;20188;-59
2021/01/13 03:15:07;;;;;;;5.70;3.75;;;3.50;99.90;;;;;;5061655;28;20180;-60
2021/01/13 03:17:55;;;;;;;4.13;3.72;;;3.80;99.90;;;;;;5054872;28;20224;-59
2021/01/13 03:20:44;;;;;;;4.70;3.63;;;3.80;99.90;;;;;;5042507;28;20209;-59
2021/01/13 03:23:15;;;;;;;5.93;4.50;;;3.70;99.90;;;;;;5064578;28;20211;-59
2021/01/13 03:25:50;;;;;;;3.85;3.45;;;3.50;99.90;;;;;;5057582;28;20189;-59
2021/01/13 03:28:18;;;;;;;6.82;3.20;;;3.70;99.90;;;;;;5057826;28;20689;-57
2021/01/13 03:30:49;;;;;;;6.40;3.30;;;3.60;99.90;;;;;;5067713;28;20909;-60
2021/01/13 03:33:28;;;;;;;4.10;3.67;;;3.50;99.90;;;;;;5068875;28;20709;-59
2021/01/13 03:36:11;;;;;;;7.43;4.05;;;4.00;99.90;;;;;;5069454;28;20185;-60
2021/01/13 03:38:54;;;;;;;4.97;3.60;;;3.70;99.90;;;;;;5067328;28;20209;-60
2021/01/13 03:41:21;;;;;;;4.88;3.38;;;3.60;99.90;;;;;;5068615;28;20212;-59
2021/01/13 03:43:53;;;;;;;3.75;3.05;;;3.50;99.90;;;;;;5053287;28;20177;-59
2021/01/13 03:46:19;;;;;;;6.65;3.33;;;3.40;99.90;;;;;;5058627;28;20338;-59
2021/01/13 03:48:51;;;;;;;4.20;3.20;;;3.40;99.90;;;;;;5052303;28;20926;-59
2021/01/13 03:51:25;;;;;;;5.43;4.35;;;3.50;99.90;;;;;;5065730;28;20246;-59
2021/01/13 03:53:52;;;;;;;6.93;3.33;;;3.70;99.90;;;;;;5055542;28;20193;-59
2021/01/13 03:56:28;;;;;;;5.55;3.95;;;3.50;99.90;;;;;;5064618;28;20181;-59
2021/01/13 03:59:02;;;;;;;4.78;3.05;;;3.70;99.90;;;;;;5067168;28;20278;-59
2021/01/13 04:01:43;;;;;;;4.97;3.72;;;3.80;99.90;;;;;;5067687;28;20292;-59
2021/01/13 04:04:32;;;;;;;7.40;3.40;;;3.50;99.90;;;;;;5062486;28;20189;-59
2021/01/13 04:07:00;;;;;;;4.30;3.10;;;3.70;99.90;;;;;;5054163;28;20212;-59
2021/01/13 04:09:26;;;;;;;4.20;3.83;;;3.20;99.90;;;;;;5061450;28;20205;-60
2021/01/13 04:12:08;;;;;;;4.68;3.08;;;3.80;99.90;;;;;;5054158;28;20185;-59
2021/01/13 04:14:49;;;;;;;4.65;3.47;;;3.50;99.90;;;;;;5057223;28;20200;-59
2021/01/13 04:17:15;;;;;;;4.80;3.60;;;3.40;99.90;;;;;;5062800;28;20654;-60
2021/01/13 04:19:43;;;;;;;4.32;2.92;;;3.50;99.90;;;;;;5068836;28;20216;-57
2021/01/13 04:22:12;;;;;;;4.75;3.60;;;3.10;99.90;;;;;;5071278;28;20587;-59
2021/01/13 04:24:38;;;;;;;7.20;3.72;;;3.10;99.90;;;;;;5069175;28;20196;-58
2021/01/13 04:27:04;;;;;;;24.13;14.13;;;3.10;99.90;;;;;;5069867;28;20192;-58
2021/01/13 04:29:30;;;;;;;3.75;3.45;;;3.00;99.90;;;;;;5066169;28;20297;-59
2021/01/13 04:31:56;;;;;;;7.60;3.50;;;2.80;99.90;;;;;;5063014;28;20315;-59
2021/01/13 04:34:25;;;;;;;5.30;3.80;;;3.10;99.90;;;;;;5064781;28;20467;-59
2021/01/13 04:36:51;;;;;;;3.75;3.20;;;3.10;99.90;;;;;;5063273;28;20192;-59
2021/01/13 04:39:19;;;;;;;7.93;4.00;;;2.90;99.90;;;;;;5071215;28;20209;-58
2021/01/13 04:41:59;;;;;;;6.28;3.55;;;3.30;99.90;;;;;;5070879;28;20557;-58
2021/01/13 04:44:30;;;;;;;11.90;8.30;;;3.10;99.90;;;;;;5065320;28;20319;-59
2021/01/13 04:47:07;;;;;;;3.85;3.40;;;3.10;99.90;;;;;;5070325;28;20671;-59
2021/01/13 04:49:34;;;;;;;3.90;3.00;;;3.20;99.90;;;;;;5068642;28;20685;-59
2021/01/13 04:52:05;;;;;;;9.98;4.25;;;3.10;99.90;;;;;;5058546;28;20233;-58
2021/01/13 04:54:33;;;;;;;3.78;3.38;;;2.80;99.90;;;;;;5062951;28;20273;-58
2021/01/13 04:57:17;;;;;;;5.00;4.32;;;2.80;99.90;;;;;;5056087;28;20193;-59
2021/01/13 05:00:06;;;;;;;5.43;4.15;;;3.00;99.90;;;;;;5062280;28;20209;-59
2021/01/13 05:02:47;;;;;;;3.60;3.30;;;2.60;99.90;;;;;;5068844;28;20209;-59
2021/01/13 05:05:22;;;;;;;5.75;3.30;;;2.50;99.90;;;;;;5062159;28;20189;-59
2021/01/13 05:08:06;;;;;;;4.25;3.40;;;2.90;99.90;;;;;;5070385;28;20184;-59
2021/01/13 05:10:38;;;;;;;7.93;3.78;;;3.00;99.90;;;;;;5070377;28;20256;-58
2021/01/13 05:13:04;;;;;;;4.40;3.80;;;2.70;99.90;;;;;;5071286;28;20667;-59
2021/01/13 05:15:31;;;;;;;6.07;3.70;;;2.90;99.90;;;;;;5064118;28;20185;-58
2021/01/13 05:18:02;;;;;;;3.80;3.22;;;2.80;99.90;;;;;;5076251;28;20468;-58
2021/01/13 05:20:32;;;;;;;4.47;3.08;;;3.10;99.90;;;;;;5060619;28;20658;-58
2021/01/13 05:22:58;;;;;;;5.05;3.63;;;2.80;99.90;;;;;;5070298;28;20241;-59
2021/01/13 05:25:40;;;;;;;5.03;3.50;;;3.00;99.90;;;;;;5061401;28;20221;-59
2021/01/13 05:28:09;;;;;;;3.65;3.35;;;3.10;99.90;;;;;;5069222;28;20856;-59
2021/01/13 05:30:45;;;;;;;5.15;4.18;;;3.30;99.90;;;;;;5069965;28;20184;-59
2021/01/13 05:33:17;;;;;;;5.45;4.05;;;3.20;99.90;;;;;;5068352;28;20199;-59
2021/01/13 05:35:49;;;;;;;9.43;4.10;;;3.10;99.90;;;;;;5062731;28;20185;-59
2021/01/13 05:38:24;;;;;;;8.32;3.97;;;2.90;99.90;;;;;;5058696;28;20375;-59
2021/01/13 05:40:53;;;;;;;8.80;4.18;;;3.20;99.90;;;;;;5066914;28;20216;-59
2021/01/13 05:43:21;;;;;;;7.75;4.00;;;3.10;99.90;;;;;;5066943;28;20242;-59
2021/01/13 05:45:49;;;;;;;5.88;4.10;;;3.00;99.90;;;;;;5055998;28;20588;-59
2021/01/13 05:48:25;;;;;;;4.13;3.47;;;3.10;99.90;;;;;;5060421;28;20690;-58
2021/01/13 05:50:53;;;;;;;5.88;3.95;;;2.80;99.90;;;;;;5062903;28;20181;-58
2021/01/13 05:53:19;;;;;;;4.38;3.60;;;2.80;99.90;;;;;;5062041;28;20284;-59
2021/01/13 05:55:49;;;;;;;3.90;3.50;;;2.90;99.90;;;;;;5060613;28;20181;-59
2021/01/13 05:58:21;;;;;;;5.45;3.60;;;2.90;99.90;;;;;;5066263;28;20690;-59
2021/01/13 06:00:50;;;;;;;7.47;4.15;;;2.80;99.90;;;;;;5070413;28;20591;-58
2021/01/13 06:03:29;;;;;;;7.85;4.20;;;3.00;99.90;;;;;;5070451;28;20211;-58
2021/01/13 06:05:59;;;;;;;6.55;3.67;;;2.80;99.90;;;;;;5065956;28;20177;-58
2021/01/13 06:08:27;;;;;;;5.65;3.95;;;2.70;99.90;;;;;;5068475;28;20300;-59
2021/01/13 06:10:58;;;;;;;5.18;3.22;;;2.70;99.90;;;;;;5069635;28;20719;-59
2021/01/13 06:13:43;;;;;;;8.60;4.20;;;2.70;99.90;;;;;;5067639;28;20193;-59
2021/01/13 06:16:10;;;;;;;8.85;4.57;;;2.60;99.90;;;;;;5065631;28;20189;-58
2021/01/13 06:18:40;;;;;;;7.85;4.20;;;2.90;99.90;;;;;;5047420;28;20304;-59
2021/01/13 06:21:10;;;;;;;5.60;4.35;;;2.70;99.90;;;;;;5064381;28;20185;-58
2021/01/13 06:23:55;;;;;;;12.73;4.90;;;2.50;99.90;;;;;;5059888;28;20188;-59
2021/01/13 06:26:20;;;;;;;7.35;5.00;;;2.80;99.90;;;;;;5057093;28;20184;-59
2021/01/13 06:29:54;;;;;;;7.50;5.30;;;2.50;99.90;;;;;;5068342;28;20204;-58
2021/01/13 06:32:30;;;;;;;8.07;4.70;;;2.30;99.90;;;;;;4993531;28;20453;-59
2021/01/13 06:35:23;;;;;;;8.35;4.93;;;2.50;99.90;;;;;;4984437;28;20223;-59
2021/01/13 06:37:51;;;;;;;7.40;4.72;;;2.10;99.90;;;;;;5037580;28;20193;-58
2021/01/13 06:40:20;;;;;;;8.85;4.53;;;2.30;99.90;;;;;;5055869;28;20323;-58
2021/01/13 06:42:46;;;;;;;10.48;4.25;;;1.70;99.90;;;;;;5056751;28;20208;-58
2021/01/13 06:45:12;;;;;;;10.73;5.78;;;2.80;99.90;;;;;;5054129;28;20676;-58
2021/01/13 06:47:55;;;;;;;8.70;5.53;;;2.80;99.90;;;;;;5064458;28;20338;-58
2021/01/13 06:50:57;;;;;;;7.30;5.45;;;2.50;99.90;;;;;;5066436;28;20220;-59
2021/01/13 06:53:31;;;;;;;6.85;5.05;;;2.90;99.90;;;;;;5043856;28;20200;-58
2021/01/13 06:56:09;;;;;;;6.68;4.82;;;2.90;99.90;;;;;;5055162;28;20193;-59
2021/01/13 06:58:37;;;;;;;7.50;4.38;;;2.60;99.90;;;;;;5053210;28;20209;-59
2021/01/13 07:01:05;;;;;;;5.45;4.03;;;3.10;99.90;;;;;;5051635;28;20265;-60
2021/01/13 07:03:31;;;;;;;8.95;5.85;;;2.70;99.90;;;;;;5056324;28;20188;-58
2021/01/13 07:06:09;;;;;;;8.90;6.57;;;3.00;99.90;;;;;;5058510;28;20177;-58
2021/01/13 07:08:36;;;;;;;7.88;5.20;;;2.70;99.90;;;;;;5057735;28;20200;-58
2021/01/13 07:11:10;;;;;;;5.53;4.72;;;2.70;99.90;;;;;;5048722;28;20181;-57
2021/01/13 07:13:38;;;;;;;7.53;4.60;;;2.80;99.90;;;;;;5057021;28;20243;-57
2021/01/13 07:16:05;;;;;;;7.38;4.93;;;2.60;99.90;;;;;;5053793;28;20178;-59
2021/01/13 07:18:35;;;;;;;8.40;5.05;;;2.40;99.90;;;;;;5055885;28;20693;-59
2021/01/13 07:21:09;;;;;;;8.35;5.65;;;2.10;99.90;;;;;;5052068;28;20273;-59
2021/01/13 07:23:36;;;;;;;6.88;5.30;;;2.10;99.90;;;;;;5056284;28;20185;-59
2021/01/13 07:26:02;;;;;;;15.38;6.97;;;2.20;99.90;;;;;;5062330;28;20548;-58
2021/01/13 07:28:30;;;;;;;8.60;6.13;;;2.30;99.90;;;;;;5066647;28;20219;-59
2021/01/13 07:30:58;;;;;;;9.30;5.07;;;2.20;99.90;;;;;;5060381;28;20184;-59
2021/01/13 07:33:31;;;;;;;8.68;5.65;;;2.00;99.90;;;;;;5048604;28;20181;-58
2021/01/13 07:35:59;;;;;;;11.43;7.18;;;2.20;99.90;;;;;;5067760;28;20196;-60
2021/01/13 07:38:29;;;;;;;11.68;6.68;;;2.30;99.90;;;;;;5063111;28;20201;-58
2021/01/13 07:41:00;;;;;;;11.07;7.68;;;2.10;99.90;;;;;;5055523;28;20262;-58
2021/01/13 07:43:51;;;;;;;7.43;5.63;;;2.30;99.90;;;;;;5058383;28;20197;-57
2021/01/13 07:46:29;;;;;;;15.15;7.35;;;2.00;99.90;;;;;;5053859;28;20242;-57
2021/01/13 07:49:19;;;;;;;7.85;5.95;;;2.30;99.90;;;;;;5050454;28;20197;-58
2021/01/13 07:51:53;;;;;;;9.80;5.88;;;2.40;99.90;;;;;;5064560;28;20215;-58
2021/01/13 07:54:33;;;;;;;8.82;6.60;;;2.10;99.90;;;;;;5062240;28;20181;-59
2021/01/13 07:57:04;;;;;;;8.50;6.97;;;2.20;99.90;;;;;;5060492;28;20184;-60
2021/01/13 07:59:40;;;;;;;7.55;5.72;;;2.00;99.90;;;;;;5065187;28;20205;-60
2021/01/13 08:02:46;;;;;;;9.05;6.50;;;2.30;99.90;;;;;;5059378;28;20208;-61
2021/01/13 08:05:20;;;;;;;9.95;6.00;;;2.20;99.90;;;;;;5058955;28;20551;-60
2021/01/13 08:08:01;;;;;;;8.35;6.40;;;2.20;99.90;;;;;;5056338;28;20646;-60
2021/01/13 08:10:34;;;;;;;11.13;6.75;;;2.20;99.90;;;;;;5059086;28;20697;-60
2021/01/13 08:13:27;;;;;;;9.05;6.53;;;2.20;99.90;;;;;;5069829;28;20207;-60
2021/01/13 08:15:52;;;;;;;9.05;6.03;;;2.30;99.90;;;;;;5056321;28;20189;-61
2021/01/13 08:18:21;;;;;;;8.83;6.43;;;2.50;99.90;;;;;;5065152;28;20667;-59
2021/01/13 08:21:16;;;;;;;7.90;6.40;;;2.60;99.90;;;;;;5065923;28;20978;-61
2021/01/13 08:23:54;;;;;;;6.72;6.03;;;2.70;99.90;;;;;;5068517;28;20234;-61
2021/01/13 08:26:20;;;;;;;9.95;7.25;;;2.60;99.90;;;;;;5057926;28;20230;-61
2021/01/13 08:28:52;;;;;;;8.63;6.78;;;2.60;99.90;;;;;;5050067;28;20675;-60
2021/01/13 08:31:26;;;;;;;12.25;6.57;;;2.80;99.90;;;;;;5051947;28;20723;-60
2021/01/13 08:34:09;;;;;;;8.35;5.72;;;2.30;99.90;;;;;;5052946;28;20186;-61
2021/01/13 08:36:37;;;;;;;7.97;5.70;;;3.00;99.90;;;;;;5057528;28;20187;-61
2021/01/13 08:39:12;;;;;;;9.93;5.80;;;3.20;99.90;;;;;;5051198;28;20208;-60
2021/01/13 08:41:41;;;;;;;8.10;5.35;;;3.60;99.90;;;;;;5056393;28;20294;-59
2021/01/13 08:44:18;;;;;;;4.97;3.83;;;3.60;99.90;;;;;;5049930;28;20546;-60
2021/01/13 08:47:01;;;;;;;5.10;3.78;;;3.60;99.90;;;;;;5052866;28;20192;-59
2021/01/13 08:49:29;;;;;;;7.53;5.15;;;3.80;99.90;;;;;;5060137;28;20212;-59
2021/01/13 08:52:17;;;;;;;8.43;4.28;;;3.90;99.90;;;;;;5060726;28;20571;-59
2021/01/13 08:55:05;;;;;;;4.95;4.03;;;3.30;99.90;;;;;;5052158;28;20193;-60
2021/01/13 08:57:51;;;;;;;4.97;3.25;;;3.80;99.90;;;;;;5053738;28;20193;-61
2021/01/13 09:00:18;;;;;;;5.38;3.72;;;3.60;99.90;;;;;;5056989;28;20285;-60
2021/01/13 09:03:05;;;;;;;4.30;3.90;;;4.10;99.90;;;;;;5064470;28;20220;-62
2021/01/13 09:05:34;;;;;;;8.65;4.30;;;4.10;99.90;;;;;;5064712;28;20775;-63
2021/01/13 09:08:02;;;;;;;8.48;4.90;;;4.10;99.90;;;;;;5050379;28;20202;-61
2021/01/13 09:10:45;;;;;;;5.45;3.85;;;3.80;99.90;;;;;;5050962;28;20198;-60
2021/01/13 09:13:31;;;;;;;10.65;4.10;;;4.10;99.90;;;;;;5049925;28;20181;-60
2021/01/13 09:15:57;;;;;;;4.80;3.38;;;3.90;99.90;;;;;;5060053;28;20654;-59
2021/01/13 09:18:24;;;;;;;8.68;4.97;;;4.30;99.90;;;;;;5054307;28;20312;-59
2021/01/13 09:20:50;;;;;;;5.68;3.30;;;4.40;99.90;;;;;;5061144;28;20272;-57
2021/01/13 09:23:22;;;;;;;4.50;4.10;;;4.50;99.90;;;;;;5046460;28;20211;-58
2021/01/13 09:25:55;;;;;;;8.13;4.20;;;4.50;99.90;;;;;;5051476;28;20179;-60
2021/01/13 09:28:21;;;;;;;4.65;4.22;;;4.80;99.90;;;;;;5067387;28;20202;-60
2021/01/13 09:30:48;;;;;;;5.90;3.50;;;4.70;99.90;;;;;;5055320;28;20309;-57
2021/01/13 09:33:19;;;;;;;4.90;3.85;;;4.40;99.90;;;;;;5061566;28;20459;-60
2021/01/13 09:35:46;;;;;;;8.43;3.60;;;4.90;99.90;;;;;;5052689;28;20193;-59
2021/01/13 09:38:16;;;;;;;5.55;3.55;;;4.90;99.90;;;;;;5057916;28;20204;-57
2021/01/13 09:40:59;;;;;;;3.40;2.63;;;4.80;99.90;;;;;;5055312;28;20183;-56
2021/01/13 09:43:31;;;;;;;3.72;2.83;;;4.70;99.90;;;;;;5053724;28;20698;-56
2021/01/13 09:46:08;;;;;;;3.83;2.75;;;4.90;99.90;;;;;;5061003;28;20186;-59
2021/01/13 09:48:36;;;;;;;7.13;3.50;;;4.70;99.90;;;;;;5048885;28;20236;-60
2021/01/13 09:51:11;;;;;;;5.35;3.00;;;4.70;99.90;;;;;;5057474;28;20181;-63
2021/01/13 09:53:48;;;;;;;3.30;2.90;;;4.70;99.90;;;;;;5059753;28;20883;-61
2021/01/13 09:56:14;;;;;;;4.82;3.05;;;4.70;99.90;;;;;;5064761;28;20678;-58
2021/01/13 09:58:41;;;;;;;6.10;4.17;;;4.70;99.90;;;;;;5064073;28;20205;-60
2021/01/13 10:01:11;;;;;;;4.80;2.60;;;4.60;99.90;;;;;;5061920;28;20444;-64
2021/01/13 10:03:38;;;;;;;4.45;2.95;;;4.60;99.90;;;;;;5056084;28;20187;-62
2021/01/13 10:06:15;;;;;;;5.97;3.00;;;5.00;99.90;;;;;;5049549;28;20181;-58
2021/01/13 10:08:41;;;;;;;4.47;3.00;;;4.90;99.90;;;;;;5061977;28;20197;-60
2021/01/13 10:11:07;;;;;;;5.55;2.83;;;4.60;99.90;;;;;;5056756;28;20207;-60
2021/01/13 10:13:37;;;;;;;4.72;3.03;;;4.90;99.90;;;;;;5053611;28;20229;-57
2021/01/13 10:16:03;;;;;;;4.40;2.95;;;5.10;99.90;;;;;;5057499;28;20466;-63
2021/01/13 10:18:29;;;;;;;3.83;2.97;;;5.20;99.90;;;;;;5067532;28;20210;-61
2021/01/13 10:20:57;;;;;;;6.30;3.40;;;5.20;99.90;;;;;;5056807;28;20200;-62
2021/01/13 10:23:43;;;;;;;7.38;3.17;;;4.70;99.90;;;;;;5061101;28;20470;-62
2021/01/13 10:26:12;;;;;;;3.95;2.85;;;5.30;99.90;;;;;;5056728;28;20264;-59
2021/01/13 10:28:38;;;;;;;3.30;3.00;;;5.30;99.90;;;;;;5067178;28;20202;-60
2021/01/13 10:31:07;;;;;;;3.20;2.77;;;4.80;99.90;;;;;;5073834;28;20186;-60
2021/01/13 10:33:44;;;;;;;4.00;3.28;;;5.30;99.90;;;;;;5063975;28;20944;-59
2021/01/13 10:36:34;;;;;;;3.45;3.05;;;5.10;99.90;;;;;;5057796;28;20197;-60
2021/01/13 10:39:05;;;;;;;5.80;2.45;;;5.30;99.90;;;;;;5063699;28;20618;-60
2021/01/13 10:41:36;;;;;;;4.60;2.53;;;5.50;99.90;;;;;;5051928;28;20252;-60
2021/01/13 10:44:28;;;;;;;3.25;2.22;;;5.70;99.90;;;;;;5061847;28;20191;-59
2021/01/13 10:47:11;;;;;;;4.18;1.83;;;5.50;99.90;;;;;;5062194;28;20198;-59
2021/01/13 10:49:41;;;;;;;4.68;2.60;;;5.50;99.90;;;;;;5053496;28;20313;-59
2021/01/13 10:52:14;;;;;;;7.65;2.88;;;5.30;99.90;;;;;;5057699;28;20185;-60
2021/01/13 10:54:42;;;;;;;5.55;2.13;;;5.70;99.90;;;;;;5058729;28;20190;-60
2021/01/13 10:57:10;;;;;;;2.75;2.15;;;5.60;99.90;;;;;;5048125;28;20188;-59
2021/01/13 10:59:36;;;;;;;3.00;2.08;;;5.60;99.90;;;;;;5057750;28;20219;-59
2021/01/13 11:02:11;;;;;;;2.45;2.25;;;6.10;99.90;;;;;;5062748;28;20238;-59
2021/01/13 11:04:46;;;;;;;5.90;2.50;;;5.70;99.80;;;;;;5067740;28;20663;-59
2021/01/13 11:07:17;;;;;;;2.95;2.20;;;6.20;99.90;;;;;;5060706;28;20240;-59
2021/01/13 11:09:47;;;;;;;3.13;2.40;;;6.40;99.70;;;;;;5058290;28;20204;-60
2021/01/13 11:12:25;;;;;;;5.80;2.75;;;6.30;99.10;;;;;;5067989;28;20195;-60
2021/01/13 11:14:52;;;;;;;3.50;2.67;;;6.40;99.10;;;;;;5066969;28;20183;-60
2021/01/13 11:17:23;;;;;;;2.72;2.50;;;6.50;98.70;;;;;;5063058;28;20197;-60
2021/01/13 11:19:52;;;;;;;2.90;2.70;;;6.30;98.10;;;;;;5067233;28;20245;-60
2021/01/13 11:22:19;;;;;;;2.58;2.20;;;6.60;98.10;;;;;;5056841;28;20221;-59
2021/01/13 11:24:49;;;;;;;5.28;2.53;;;6.70;97.70;;;;;;5054736;28;20210;-60
2021/01/13 11:27:19;;;;;;;3.10;2.33;;;7.20;97.60;;;;;;5067813;28;20188;-61
2021/01/13 11:29:53;;;;;;;3.45;2.10;;;6.90;96.90;;;;;;5067701;28;20205;-59
2021/01/13 11:32:22;;;;;;;3.80;2.33;;;6.80;96.60;;;;;;5059859;28;20199;-60
2021/01/13 11:34:53;;;;;;;4.50;2.22;;;6.80;96.80;;;;;;5066521;28;20191;-58
2021/01/13 11:37:20;;;;;;;5.72;2.15;;;6.90;97.10;;;;;;5059742;28;20191;-59
2021/01/13 11:40:02;;;;;;;2.40;2.20;;;6.50;96.80;;;;;;5066689;28;20265;-59
2021/01/13 11:42:41;;;;;;;3.00;2.70;;;6.40;96.60;;;;;;5066461;28;20229;-60
2021/01/13 11:45:40;;;;;;;3.60;2.45;;;6.60;97.40;;;;;;5062556;28;20598;-59
2021/01/13 11:48:08;;;;;;;4.43;2.33;;;6.40;97.90;;;;;;5051573;28;20233;-59
2021/01/13 11:50:36;;;;;;;3.83;2.40;;;6.40;97.70;;;;;;5049580;28;20208;-59
2021/01/13 11:53:04;;;;;;;3.90;2.00;;;6.30;97.30;;;;;;5056994;28;20640;-61
2021/01/13 11:55:31;;;;;;;4.80;2.70;;;6.40;97.70;;;;;;5056865;28;20740;-58
2021/01/13 11:57:57;;;;;;;3.45;2.42;;;6.20;97.60;;;;;;5059473;28;20271;-59
2021/01/13 12:00:27;;;;;;;3.40;2.50;;;5.90;97.70;;;;;;5056256;28;20272;-61
2021/01/13 12:02:59;;;;;;;5.22;2.97;;;6.20;98.00;;;;;;5050510;28;20253;-59
2021/01/13 12:05:27;;;;;;;1.80;1.70;;;6.40;97.20;;;;;;5057951;28;20231;-59
2021/01/13 12:08:06;;;;;;;2.42;2.20;;;6.10;96.70;;;;;;5058623;28;20205;-59
2021/01/13 12:10:35;;;;;;;4.80;2.05;;;6.50;97.60;;;;;;5063527;28;20206;-60
2021/01/13 12:13:13;;;;;;;7.72;3.85;;;6.80;97.60;;;;;;5057709;28;20207;-60
2021/01/13 12:16:03;;;;;;;2.22;1.67;;;6.70;97.50;;;;;;5066777;28;20736;-60
2021/01/13 12:18:31;;;;;;;4.38;2.38;;;6.60;97.00;;;;;;5061704;28;20292;-61
2021/01/13 12:20:59;;;;;;;2.75;2.28;;;6.30;96.90;;;;;;5065818;28;20753;-60
2021/01/13 12:23:36;;;;;;;2.95;2.10;;;6.60;96.90;;;;;;5057472;28;20238;-60
2021/01/13 12:26:28;;;;;;;3.60;2.17;;;6.60;97.30;;;;;;5053079;28;20192;-58
2021/01/13 12:29:12;;;;;;;5.45;1.95;;;6.10;96.60;;;;;;5059092;28;20204;-57
2021/01/13 12:31:42;;;;;;;2.28;1.30;;;6.40;96.80;;;;;;5058480;28;20929;-58
2021/01/13 12:34:24;;;;;;;6.45;1.70;;;6.40;96.60;;;;;;5051022;28;20234;-59
2021/01/13 12:36:52;;;;;;;2.55;1.42;;;6.60;96.70;;;;;;5049078;28;20197;-58
2021/01/13 12:39:26;;;;;;;2.83;1.40;;;6.50;96.30;;;;;;5059243;28;20244;-58
2021/01/13 12:41:53;;;;;;;3.55;1.45;;;6.30;95.60;;;;;;5066494;28;20219;-60
2021/01/13 12:44:20;;;;;;;3.00;1.60;;;6.50;95.70;;;;;;5065390;28;20233;-59
2021/01/13 12:47:03;;;;;;;3.28;1.50;;;6.60;96.20;;;;;;5053188;28;20222;-59
2021/01/13 12:49:30;;;;;;;2.20;1.40;;;6.60;95.70;;;;;;5063904;28;20219;-59
2021/01/13 12:52:00;;;;;;;1.35;1.23;;;6.60;95.50;;;;;;5062403;28;20203;-60
2021/01/13 12:54:26;;;;;;;1.65;1.13;;;7.00;95.10;;;;;;5069087;28;20667;-60
2021/01/13 12:56:52;;;;;;;1.50;1.23;;;6.60;94.70;;;;;;5067565;28;20200;-61
2021/01/13 12:59:21;;;;;;;3.78;1.77;;;6.80;95.00;;;;;;5069041;28;20199;-58
2021/01/13 13:01:48;;;;;;;4.20;1.55;;;6.90;94.90;;;;;;5066681;28;20213;-59
2021/01/13 13:04:14;;;;;;;4.22;1.40;;;6.80;94.40;;;;;;5054433;28;20173;-60
2021/01/13 13:06:41;;;;;;;2.13;0.93;;;6.80;94.50;;;;;;5064688;28;20909;-57
2021/01/13 13:09:15;;;;;;;1.15;0.95;;;7.10;94.00;;;;;;5063310;28;20577;-63
2021/01/13 13:11:41;;;;;;;2.13;1.05;;;6.80;93.70;;;;;;5070960;28;20189;-65
2021/01/13 13:14:08;;;;;;;1.20;1.02;;;6.70;93.50;;;;;;5057051;28;20188;-60
2021/01/13 13:16:35;;;;;;;1.83;1.27;;;6.80;94.20;;;;;;5058363;28;20196;-58
2021/01/13 13:19:01;;;;;;;1.75;1.20;;;6.50;93.60;;;;;;5054123;28;20267;-58
2021/01/13 13:21:26;;;;;;;2.03;1.57;;;6.90;93.70;;;;;;5055326;28;20189;-59
2021/01/13 13:23:54;;;;;;;2.37;1.20;;;6.90;93.10;;;;;;5059268;28;20192;-59